createdAt,value
2022-11-20T00:04:03.100Z,55.67
2022-11-20T00:09:25.406Z,57.83
2022-11-20T00:14:47.581Z,53.83
2022-11-20T00:20:09.839Z,51.58
2022-11-20T00:25:32.090Z,51.00
2022-11-20T00:30:54.377Z,55.52
2022-11-20T00:36:26.781Z,51.53
2022-11-20T00:41:49.348Z,47.35
2022-11-20T00:47:11.532Z,50.28
2022-11-20T00:52:33.747Z,50.52
2022-11-20T00:57:55.893Z,49.75
2022-11-20T01:03:21.601Z,60.90
2022-11-20T01:08:43.864Z,59.38
2022-11-20T01:14:08.927Z,61.63
2022-11-20T01:19:34.564Z,56.35
2022-11-20T01:24:56.871Z,51.00
2022-11-20T01:30:20.803Z,50.98
2022-11-20T01:35:43.530Z,49.10
2022-11-20T01:41:08.669Z,51.08
2022-11-20T01:46:41.850Z,53.50
2022-11-20T01:52:15.497Z,50.52
2022-11-20T01:57:39.890Z,47.73
2022-11-20T02:03:19.714Z,46.00
2022-11-20T02:08:44.206Z,49.47
2022-11-20T02:14:06.755Z,47.90
2022-11-20T02:19:38.766Z,47.25
2022-11-20T02:25:03.179Z,50.28
2022-11-20T02:30:26.082Z,46.25
2022-11-20T02:35:53.238Z,48.08
2022-11-20T02:41:15.543Z,47.25
2022-11-20T02:46:38.093Z,47.27
2022-11-20T02:52:00.369Z,51.10
2022-11-20T02:57:22.684Z,50.00
2022-11-20T03:02:45.639Z,50.83
2022-11-20T03:08:07.872Z,52.73
2022-11-20T03:13:30.053Z,53.70
2022-11-20T03:18:52.817Z,56.63
2022-11-20T03:24:15.896Z,52.43
2022-11-20T03:29:38.165Z,59.98
2022-11-20T03:35:00.998Z,48.52
2022-11-20T03:40:23.689Z,49.18
2022-11-20T03:45:45.913Z,50.85
2022-11-20T03:51:24.023Z,49.83
2022-11-20T03:56:49.348Z,54.73
2022-11-20T04:02:11.712Z,54.23
2022-11-20T04:07:34.205Z,52.33
2022-11-20T04:12:56.458Z,44.55
2022-11-20T04:18:19.637Z,44.88
2022-11-20T04:23:41.906Z,46.23
2022-11-20T04:29:04.416Z,45.23
2022-11-20T04:34:26.981Z,42.40
2022-11-20T04:39:49.278Z,42.95
2022-11-20T04:45:11.744Z,39.65
2022-11-20T04:50:34.002Z,39.88
2022-11-20T04:55:56.345Z,37.00
2022-11-20T05:01:29.188Z,39.13
2022-11-20T05:06:51.468Z,36.60
2022-11-20T05:12:14.757Z,35.00
2022-11-20T05:17:37.005Z,34.85
2022-11-20T05:22:59.284Z,29.92
2022-11-20T05:28:21.529Z,33.20
2022-11-20T05:33:44.670Z,33.35
2022-11-20T05:39:06.920Z,32.78
2022-11-20T05:44:33.240Z,34.78
2022-11-20T05:49:55.438Z,34.67
2022-11-20T05:55:18.301Z,34.48
2022-11-20T06:00:40.578Z,36.77
2022-11-20T06:06:03.037Z,41.08
2022-11-20T06:11:27.016Z,38.50
2022-11-20T06:16:49.218Z,39.73
2022-11-20T06:22:11.398Z,38.00
2022-11-20T06:27:34.483Z,40.88
2022-11-20T06:32:56.800Z,38.10
2022-11-20T06:38:19.159Z,42.90
2022-11-20T06:43:42.488Z,44.25
2022-11-20T06:49:05.429Z,47.20
2022-11-20T06:54:27.598Z,42.58
2022-11-20T06:59:49.808Z,42.05
2022-11-20T07:05:12.070Z,46.30
2022-11-20T07:10:34.327Z,44.53
2022-11-20T07:15:56.626Z,41.60
2022-11-20T07:21:27.136Z,47.20
2022-11-20T07:26:50.600Z,48.13
2022-11-20T07:32:12.790Z,46.35
2022-11-20T07:37:35.324Z,43.30
2022-11-20T07:43:04.749Z,43.78
2022-11-20T07:48:26.957Z,44.37
2022-11-20T07:53:49.674Z,43.73
2022-11-20T07:59:13.058Z,47.90
2022-11-20T08:04:35.351Z,56.48
2022-11-20T08:09:57.867Z,47.50
2022-11-20T08:15:21.868Z,49.83
2022-11-20T08:20:44.977Z,55.92
2022-11-20T08:26:08.778Z,45.73
2022-11-20T08:31:31.648Z,47.05
2022-11-20T08:36:54.177Z,46.20
2022-11-20T08:42:18.398Z,43.90
2022-11-20T08:47:40.695Z,46.65
2022-11-20T08:53:03.160Z,52.62
2022-11-20T08:58:26.032Z,50.48
2022-11-20T09:03:48.570Z,47.83
2022-11-20T09:09:14.548Z,45.35
2022-11-20T09:14:36.728Z,43.98
2022-11-20T09:19:59.936Z,48.83
2022-11-20T09:25:22.713Z,49.53
2022-11-20T09:30:45.755Z,39.10
2022-11-20T09:36:07.989Z,47.27
2022-11-20T09:41:44.409Z,45.65
2022-11-20T09:47:39.831Z,47.85
2022-11-20T09:59:09.407Z,50.80
2022-11-20T10:04:41.836Z,47.13
2022-11-20T10:10:10.039Z,58.40
2022-11-20T10:15:41.804Z,58.23
2022-11-20T10:21:26.873Z,53.43
2022-11-20T10:27:02.410Z,54.70
2022-11-20T10:32:32.521Z,60.57
2022-11-20T10:38:08.052Z,58.83
2022-11-20T10:43:37.941Z,59.97
2022-11-20T10:49:02.122Z,65.90
2022-11-20T10:54:53.525Z,65.05
2022-11-20T11:00:22.196Z,62.17
2022-11-20T11:06:10.015Z,64.07
2022-11-20T11:11:41.933Z,67.92
2022-11-20T11:17:11.794Z,70.25
2022-11-20T11:22:36.546Z,58.93
2022-11-20T11:28:09.074Z,67.23
2022-11-20T11:33:40.177Z,63.23
2022-11-20T11:39:05.180Z,62.33
2022-11-20T11:45:00.464Z,53.53
2022-11-20T11:50:27.012Z,44.13
2022-11-20T11:56:12.441Z,46.98
2022-11-20T12:02:00.279Z,50.15
2022-11-20T12:07:47.297Z,53.28
2022-11-20T12:13:02.435Z,48.30
2022-11-20T12:18:28.546Z,56.00
2022-11-20T12:24:19.722Z,49.53
2022-11-20T12:30:13.953Z,56.20
2022-11-20T12:35:57.940Z,55.48
2022-11-20T12:42:21.406Z,59.73
2022-11-20T12:48:06.691Z,57.93
2022-11-20T12:54:05.270Z,59.30
2022-11-20T12:59:47.415Z,58.67
2022-11-20T13:05:45.968Z,58.73
2022-11-20T13:11:47.667Z,56.63
2022-11-20T13:17:29.175Z,61.27
2022-11-20T13:28:37.947Z,62.50
2022-11-20T13:34:01.767Z,57.77
2022-11-20T13:39:33.799Z,57.70
2022-11-20T13:45:02.653Z,55.83
2022-11-20T13:50:29.682Z,50.17
2022-11-20T13:56:15.270Z,53.77
2022-11-20T14:01:44.043Z,52.75
2022-11-20T14:07:08.154Z,42.20
2022-11-20T14:12:38.974Z,54.80
2022-11-20T14:18:01.767Z,50.97
2022-11-20T14:23:32.411Z,47.25
2022-11-20T14:28:56.324Z,47.53
2022-11-20T14:40:00.388Z,52.83
2022-11-20T14:45:24.886Z,49.37
2022-11-20T14:50:48.970Z,45.67
2022-11-20T14:56:16.270Z,48.87
2022-11-20T15:01:41.318Z,49.10
2022-11-20T15:07:12.245Z,45.00
2022-11-20T15:12:37.178Z,50.80
2022-11-20T15:18:00.719Z,59.43
2022-11-20T15:23:26.974Z,45.90
2022-11-20T15:28:55.465Z,50.15
2022-11-20T15:34:19.619Z,50.10
2022-11-20T15:39:42.344Z,57.03
2022-11-20T15:45:05.211Z,45.07
2022-11-20T15:50:30.708Z,41.90
2022-11-20T15:55:53.104Z,50.55
2022-11-20T16:01:19.896Z,55.67
2022-11-20T16:06:42.494Z,54.40
2022-11-20T16:12:04.686Z,55.80
2022-11-20T16:17:29.611Z,61.05
2022-11-20T16:22:51.946Z,66.77
2022-11-20T16:28:18.879Z,57.80
2022-11-20T16:33:39.199Z,58.83
2022-11-20T16:39:04.230Z,58.83
2022-11-20T16:44:27.607Z,66.07
2022-11-20T16:49:49.839Z,51.60
2022-11-20T16:55:12.526Z,60.80
2022-11-20T17:00:35.589Z,56.35
2022-11-20T17:05:57.938Z,55.13
2022-11-20T17:11:23.750Z,60.67
2022-11-20T17:16:47.073Z,58.40
2022-11-20T17:22:10.371Z,56.67
2022-11-20T17:27:34.182Z,51.40
2022-11-20T17:32:56.903Z,53.50
2022-11-20T17:38:19.485Z,58.83
2022-11-20T17:43:43.071Z,55.30
2022-11-20T17:49:06.495Z,55.58
2022-11-20T17:54:29.966Z,57.90
2022-11-20T17:59:52.192Z,53.35
2022-11-20T18:05:14.921Z,52.85
2022-11-20T18:10:37.796Z,58.35
2022-11-20T18:16:00.550Z,49.83
2022-11-20T18:21:23.104Z,49.13
2022-11-20T18:26:45.785Z,51.60
2022-11-20T18:32:08.035Z,44.03
2022-11-20T18:37:31.910Z,54.63
2022-11-20T18:43:13.627Z,51.33
2022-11-20T18:48:39.242Z,49.63
2022-11-20T18:54:01.649Z,46.00
2022-11-20T18:59:26.700Z,47.23
2022-11-20T19:04:49.514Z,59.25
2022-11-20T19:10:12.454Z,52.30
2022-11-20T19:15:36.416Z,53.60
2022-11-20T19:20:58.734Z,51.42
2022-11-20T19:26:21.128Z,49.85
2022-11-20T19:31:44.479Z,52.38
2022-11-20T19:37:06.676Z,56.40
2022-11-20T19:42:28.856Z,51.60
2022-11-20T19:48:08.021Z,57.25
2022-11-20T19:53:14.999Z,50.85
2022-11-20T19:58:37.986Z,53.68
2022-11-20T20:04:05.606Z,57.05
2022-11-20T20:09:30.841Z,66.22
2022-11-20T20:14:53.365Z,55.65
2022-11-20T20:20:16.488Z,55.80
2022-11-20T20:25:41.833Z,58.50
2022-11-20T20:31:04.136Z,55.52
2022-11-20T20:36:29.149Z,60.40
2022-11-20T20:41:51.361Z,60.78
2022-11-20T20:47:13.561Z,60.55
2022-11-20T20:52:35.886Z,53.70
2022-11-20T20:57:58.905Z,47.60
2022-11-20T21:03:21.085Z,51.37
2022-11-20T21:08:45.001Z,55.23
2022-11-20T21:14:07.842Z,48.63
2022-11-20T21:19:30.795Z,46.05
2022-11-20T21:24:53.954Z,52.80
2022-11-20T21:30:16.757Z,51.23
2022-11-20T21:35:42.076Z,55.03
2022-11-20T21:41:04.725Z,56.68
2022-11-20T21:46:33.976Z,49.50
2022-11-20T21:51:57.290Z,64.00
2022-11-20T21:57:19.482Z,64.35
2022-11-20T22:02:41.656Z,60.97
2022-11-20T22:08:03.895Z,54.43
2022-11-20T22:13:44.012Z,55.12
2022-11-20T22:19:09.641Z,55.03
2022-11-20T22:24:33.700Z,51.92
2022-11-20T22:29:55.871Z,52.25
2022-11-20T22:35:18.764Z,49.85
2022-11-20T22:40:40.981Z,52.78
2022-11-20T22:46:13.505Z,59.80
2022-11-20T22:51:39.012Z,52.43
2022-11-20T22:57:01.834Z,54.47
2022-11-20T23:02:24.247Z,60.55
2022-11-20T23:07:46.622Z,55.23
2022-11-20T23:13:08.851Z,58.97
2022-11-20T23:18:31.029Z,59.13
2022-11-20T23:23:57.200Z,60.43
2022-11-20T23:29:20.439Z,61.33
2022-11-20T23:34:42.688Z,62.63
2022-11-20T23:40:04.945Z,65.35
2022-11-20T23:45:27.447Z,56.55
2022-11-20T23:50:51.160Z,66.80
2022-11-20T23:56:17.407Z,66.57
